Terminal Aerodrome Forecast
Issued by NWS

Home | Current Version | Previous Version | Text Only | Print | Product List | Glossary On
Versions: 1 2 3 4 5 6 7 8 9 10 11 12 13 14 15 16 17 18 19 20 21 22 23 24 25 26 27
000
FTAK31 PAFA 191735
TAFAGA
TAF
PAGA 191735Z 1918/2018 10007KT P6SM VCSH SCT025 OVC050
     FM200000 11008KT P6SM VCSH SCT025 BKN050 OVC100
     FM201200 15008KT P6SM BKN050 BKN100=

USA.gov is the U.S. government's official web portal to all federal, state and local government web resources and services.